Time;durP1;ratioP1;P1;durP2;ratioP2;P2;SDS_P1;SDS_P2;PMS_P1;PMS_P2;Temp;Humidity;BMP_temperature;BMP_pressure;BME280_temperature;BME280_humidity;BME280_pressure;Samples;Min_cycle;Max_cycle;Signal;HPM_P1;HPM_P2
2022/04/02 00:00:23;;;;;;;80.80;44.30;;;;;;;11.12;94.63;98709.64;107518;1246;72674;-73
2022/04/02 00:03:05;;;;;;;74.70;46.40;;;;;;;11.17;95.89;98715.85;107394;1246;71619;-72
2022/04/02 00:05:34;;;;;;;61.50;40.80;;;;;;;10.98;95.72;98715.40;107585;1246;73893;-73
2022/04/02 00:08:04;;;;;;;55.90;37.70;;;;;;;10.93;95.04;98712.70;107844;1246;62645;-73
2022/04/02 00:10:33;;;;;;;58.90;39.60;;;;;;;10.86;94.11;98709.02;107910;1246;60936;-75
2022/04/02 00:13:03;;;;;;;55.90;38.30;;;;;;;10.90;93.98;98708.63;107924;1246;71999;-71
2022/04/02 00:15:32;;;;;;;75.90;46.80;;;;;;;10.98;93.79;98715.56;107958;1246;72555;-72
2022/04/02 00:18:01;;;;;;;76.50;46.80;;;;;;;11.17;95.02;98716.52;107987;1246;69745;-73
2022/04/02 00:20:30;;;;;;;73.10;46.00;;;;;;;11.13;96.22;98716.48;107844;1246;71933;-74
2022/04/02 00:25:47;;;;;;;80.90;49.60;;;;;;;10.86;94.42;98720.55;107687;1246;61610;-71
2022/04/02 00:28:17;;;;;;;79.40;49.00;;;;;;;10.86;94.00;98722.77;108043;1246;73205;-73
2022/04/02 00:30:46;;;;;;;75.20;47.80;;;;;;;10.88;93.39;98720.20;107948;1246;69986;-72
2022/04/02 00:33:15;;;;;;;71.20;47.60;;;;;;;10.92;92.69;98721.70;107766;1246;69125;-70
2022/04/02 00:35:45;;;;;;;76.30;48.00;;;;;;;10.95;91.85;98730.76;107626;1246;74893;-71
2022/04/02 00:38:14;;;;;;;76.80;49.30;;;;;;;10.98;91.67;98733.71;107656;1246;63955;-72
2022/04/02 00:40:43;;;;;;;70.70;46.50;;;;;;;11.06;92.23;98734.98;107721;1246;62225;-73
2022/04/02 00:43:36;;;;;;;76.40;48.20;;;;;;;11.18;93.10;98735.80;107642;1246;71811;-73
2022/04/02 00:46:09;;;;;;;77.10;48.50;;;;;;;11.23;92.64;98731.30;107554;1246;70355;-72
2022/04/02 00:48:39;;;;;;;72.00;46.10;;;;;;;11.27;91.98;98728.75;107550;1246;70706;-72
2022/04/02 00:51:15;;;;;;;74.60;44.10;;;;;;;11.29;91.92;98728.50;107382;1247;73581;-72
2022/04/02 00:53:49;;;;;;;73.60;45.10;;;;;;;11.27;92.15;98727.71;107404;1247;61299;-70
2022/04/02 00:56:20;;;;;;;63.90;39.40;;;;;;;11.32;92.32;98720.16;107677;1246;60115;-71
2022/04/02 00:58:49;;;;;;;49.20;29.50;;;;;;;11.36;92.57;98721.70;107772;1246;72479;-71
2022/04/02 01:01:19;;;;;;;50.30;29.50;;;;;;;11.28;89.41;98720.98;107528;1245;73227;-71
2022/04/02 01:03:50;;;;;;;57.00;32.30;;;;;;;11.35;88.31;98722.52;107597;1246;72117;-70
2022/04/02 01:06:25;;;;;;;49.90;27.10;;;;;;;11.40;87.71;98717.98;107571;1249;70944;-71
2022/04/02 01:08:54;;;;;;;47.10;24.40;;;;;;;11.43;85.99;98717.45;107496;1246;60816;-71
2022/04/02 01:11:35;;;;;;;52.70;28.50;;;;;;;11.47;86.18;98716.72;107549;1245;60212;-71
2022/04/02 01:14:05;;;;;;;48.10;26.20;;;;;;;11.57;88.01;98715.73;107636;1246;72602;-69
2022/04/02 01:16:35;;;;;;;58.20;25.70;;;;;;;11.56;89.32;98718.45;107550;1246;70482;-73
2022/04/02 01:19:07;;;;;;;45.30;27.10;;;;;;;11.56;90.72;98720.25;107544;1245;71407;-73
2022/04/02 01:21:37;;;;;;;62.80;29.10;;;;;;;11.40;87.24;98724.17;107468;1246;75191;-69
2022/04/02 01:24:19;;;;;;;50.90;28.00;;;;;;;11.38;86.57;98715.95;107668;1246;63329;-70
2022/04/02 01:26:49;;;;;;;47.00;28.20;;;;;;;11.41;87.28;98720.48;107605;1248;61514;-72
2022/04/02 01:29:20;;;;;;;58.40;26.80;;;;;;;11.35;86.38;98715.85;107410;1246;72046;-70
2022/04/02 01:31:55;;;;;;;60.00;26.00;;;;;;;11.36;85.33;98715.91;107433;1246;73250;-71
2022/04/02 01:34:25;;;;;;;52.10;26.30;;;;;;;11.37;85.48;98716.63;107455;1246;70116;-70
2022/04/02 01:36:55;;;;;;;50.00;28.80;;;;;;;11.41;86.72;98708.95;107424;1246;75087;-70
2022/04/02 01:39:30;;;;;;;61.80;33.40;;;;;;;11.47;88.86;98704.17;107420;1245;62184;-69
2022/04/02 01:42:05;;;;;;;55.20;30.90;;;;;;;11.39;90.19;98706.53;107333;1246;60566;-71
2022/04/02 01:44:44;;;;;;;54.60;29.80;;;;;;;11.22;90.89;98706.04;107621;1246;74620;-70
2022/04/02 01:47:13;;;;;;;55.40;28.80;;;;;;;11.01;88.68;98712.90;107627;1245;71415;-71
2022/04/02 01:49:43;;;;;;;43.90;26.50;;;;;;;11.03;89.72;98717.86;107670;1246;71393;-71
2022/04/02 01:52:16;;;;;;;44.20;24.90;;;;;;;11.02;90.55;98722.38;107651;1246;71658;-70
2022/04/02 01:54:47;;;;;;;44.80;26.00;;;;;;;10.90;90.43;98723.98;107673;1246;61352;-70
2022/04/02 01:57:17;;;;;;;43.70;25.90;;;;;;;10.81;89.88;98726.58;107563;1246;60023;-69
2022/04/02 01:59:48;;;;;;;52.50;29.30;;;;;;;10.74;89.94;98725.76;107323;1247;72055;-69
2022/04/02 02:02:20;;;;;;;54.70;29.90;;;;;;;10.74;90.21;98722.45;107576;1246;71558;-70
2022/04/02 02:04:49;;;;;;;47.70;29.00;;;;;;;10.78;90.48;98726.03;107511;1246;67795;-70
2022/04/02 02:07:19;;;;;;;48.70;28.60;;;;;;;10.80;90.53;98721.65;107762;1246;72188;-70
2022/04/02 02:09:57;;;;;;;;;;;;;;;10.81;90.51;98722.05;108036;1245;60616;-72
2022/04/02 02:13:00;;;;;;;43.70;25.30;;;;;;;10.82;91.00;98721.52;107988;1245;60997;-75
2022/04/02 02:15:44;;;;;;;47.90;26.90;;;;;;;10.73;90.88;98724.15;107757;1246;71872;-72
2022/04/02 02:18:13;;;;;;;40.40;24.70;;;;;;;10.77;92.33;98717.63;107716;1247;70035;-69
2022/04/02 02:20:43;;;;;;;42.80;26.30;;;;;;;10.60;91.07;98713.54;107872;1246;71027;-66
2022/04/02 02:23:13;;;;;;;42.30;23.40;;;;;;;10.62;90.84;98711.95;107576;1246;73622;-68
2022/04/02 02:25:42;;;;;;;45.40;25.00;;;;;;;10.62;90.40;98713.41;107501;1246;61763;-68
2022/04/02 02:28:11;;;;;;;48.60;26.90;;;;;;;10.65;90.92;98714.71;107342;1248;58962;-67
2022/04/02 02:30:41;;;;;;;49.70;26.90;;;;;;;10.54;90.28;98716.53;107424;1246;72658;-66
2022/04/02 02:35:59;;;;;;;44.90;26.40;;;;;;;10.62;91.27;98722.36;107715;1245;69304;-69
2022/04/02 02:38:37;;;;;;;48.50;24.70;;;;;;;10.57;91.65;98723.75;107612;1246;73588;-69
2022/04/02 02:41:47;;;;;;;48.50;25.60;;;;;;;10.52;92.62;98725.17;107600;1245;63333;-70
2022/04/02 02:44:27;;;;;;;0.10;0.10;;;;;;;10.43;93.84;98726.22;107545;1246;59331;-71
2022/04/02 02:47:08;;;;;;;3.40;1.60;;;;;;;10.27;94.30;98721.79;107448;1246;72011;-71
2022/04/02 02:49:38;;;;;;;0.20;0.20;;;;;;;10.15;94.01;98726.34;107436;1246;70664;-69
2022/04/02 02:52:10;;;;;;;2.40;2.20;;;;;;;10.08;94.20;98722.88;107458;1246;70614;-71
2022/04/02 02:54:39;;;;;;;0.10;0.10;;;;;;;10.03;94.36;98726.95;107460;1246;74699;-68
2022/04/02 02:57:08;;;;;;;3.50;2.60;;;;;;;9.98;93.56;98729.60;107366;1246;63262;-68
2022/04/02 02:59:37;;;;;;;0.40;0.40;;;;;;;9.99;92.84;98732.83;107031;1246;607230;-70
2022/04/02 03:02:07;;;;;;;11.20;1.60;;;;;;;10.06;92.94;98731.05;107496;1246;73210;-70
2022/04/02 03:04:38;;;;;;;3.40;1.30;;;;;;;10.10;92.71;98731.33;107373;1247;71273;-68
2022/04/02 03:07:11;;;;;;;1.40;1.30;;;;;;;10.13;92.23;98731.21;107568;1245;68721;-70
2022/04/02 03:09:41;;;;;;;0.20;0.20;;;;;;;10.15;91.93;98728.41;107437;1246;71397;-71
2022/04/02 03:12:12;;;;;;;3.00;2.60;;;;;;;10.19;91.80;98724.35;107515;1246;62169;-70
2022/04/02 03:14:41;;;;;;;0.20;0.20;;;;;;;10.20;91.65;98727.05;107570;1246;59551;-69
2022/04/02 03:17:10;;;;;;;0.10;0.10;;;;;;;10.21;92.05;98728.29;107421;1246;73093;-70
2022/04/02 03:19:40;;;;;;;0.40;0.40;;;;;;;10.19;92.22;98724.69;107475;1246;72256;-68
2022/04/02 03:22:08;;;;;;;0.50;0.50;;;;;;;10.21;91.91;98721.70;107297;1246;71367;-69
2022/04/02 03:24:37;;;;;;;0.20;0.20;;;;;;;10.27;92.14;98724.20;107087;1248;75226;-71
2022/04/02 03:27:08;;;;;;;2.20;0.60;;;;;;;10.31;91.93;98722.19;107315;1246;63515;-71
2022/04/02 03:29:45;;;;;;;2.00;0.90;;;;;;;10.30;91.59;98720.92;107454;1246;61874;-71
2022/04/02 03:32:16;;;;;;;0.70;0.70;;;;;;;10.35;91.76;98721.30;107454;1246;75051;-70
2022/04/02 03:34:45;;;;;;;0.70;0.70;;;;;;;10.36;92.01;98720.88;107303;1246;71095;-69
2022/04/02 03:37:14;;;;;;;0.60;0.50;;;;;;;10.39;91.90;98718.64;107456;1247;71341;-70
2022/04/02 03:39:43;;;;;;;3.00;1.40;;;;;;;10.35;91.90;98716.08;107331;1246;74772;-71
2022/04/02 03:42:13;;;;;;;0.50;0.50;;;;;;;10.36;91.54;98721.20;107095;1248;62616;-70
2022/04/02 03:44:42;;;;;;;1.30;0.70;;;;;;;10.41;91.80;98722.09;107509;1246;62889;-71
2022/04/02 03:47:11;;;;;;;0.10;0.10;;;;;;;10.46;92.26;98722.84;107841;1246;74525;-71
2022/04/02 03:49:47;;;;;;;0.50;0.50;;;;;;;10.43;92.56;98725.69;107728;1246;72045;-71
2022/04/02 03:52:19;;;;;;;0.80;0.80;;;;;;;10.36;91.73;98723.67;107743;1246;71455;-72
2022/04/02 03:54:51;;;;;;;1.10;0.80;;;;;;;10.37;91.48;98722.48;107611;1246;74982;-71
2022/04/02 03:57:21;;;;;;;0.10;0.10;;;;;;;10.32;91.07;98727.90;107737;1246;60949;-71
2022/04/02 03:59:55;;;;;;;2.30;1.60;;;;;;;10.35;90.85;98731.40;107718;1246;61325;-71
2022/04/02 04:02:24;;;;;;;0.30;0.30;;;;;;;10.44;91.47;98735.31;107755;1246;72172;-73
2022/04/02 04:04:54;;;;;;;0.30;0.30;;;;;;;10.51;91.33;98735.52;107950;1246;71292;-73
2022/04/02 04:07:24;;;;;;;1.00;1.00;;;;;;;10.59;91.11;98741.43;107958;1246;69670;-74
2022/04/02 04:09:53;;;;;;;7.70;1.70;;;;;;;10.72;91.36;98750.04;107859;1246;71992;-73
2022/04/02 04:12:22;;;;;;;0.70;0.70;;;;;;;10.74;92.87;98749.45;107729;1247;60927;-75
2022/04/02 04:14:54;;;;;;;8.20;6.80;;;;;;;10.69;92.77;98756.10;107775;1246;58919;-71
2022/04/02 04:17:24;;;;;;;1.60;0.30;;;;;;;10.64;91.99;98755.23;107972;1246;73663;-71
2022/04/02 04:19:53;;;;;;;3.80;1.20;;;;;;;10.67;91.61;98759.42;107956;1246;69793;-72
2022/04/02 04:22:22;;;;;;;1.00;1.00;;;;;;;10.72;91.13;98758.20;108119;1246;70193;-73
2022/04/02 04:24:53;;;;;;;1.10;1.00;;;;;;;10.77;91.02;98766.56;108056;1246;72896;-73
2022/04/02 04:27:22;;;;;;;1.60;1.50;;;;;;;10.84;91.04;98765.67;107995;1246;62567;-74
2022/04/02 04:29:51;;;;;;;0.10;0.10;;;;;;;10.86;90.61;98763.27;107652;1246;59897;-72
2022/04/02 04:32:21;;;;;;;0.30;0.30;;;;;;;10.97;89.91;98768.58;107674;1246;71953;-72
2022/04/02 04:34:50;;;;;;;6.50;2.50;;;;;;;11.05;91.26;98769.89;107614;1246;70061;-73
2022/04/02 04:37:20;;;;;;;0.30;0.30;;;;;;;11.00;92.34;98775.67;107606;1246;68479;-72
2022/04/02 04:39:49;;;;;;;3.70;1.20;;;;;;;10.95;91.64;98776.52;107671;1246;74919;-69
2022/04/02 04:42:20;;;;;;;0.60;0.60;;;;;;;11.03;93.17;98779.03;107480;1246;62268;-72
2022/04/02 04:44:53;;;;;;;0.50;0.50;;;;;;;10.94;92.85;98782.80;107384;1246;59364;-70
2022/04/02 04:47:22;;;;;;;0.50;0.40;;;;;;;11.01;92.90;98782.69;107508;1246;72654;-71
2022/04/02 04:49:53;;;;;;;0.80;0.80;;;;;;;11.11;95.15;98784.41;107448;1246;70721;-70
2022/04/02 04:52:23;;;;;;;3.50;2.10;;;;;;;11.05;94.06;98785.83;107336;1246;70283;-69
2022/04/02 04:54:53;;;;;;;0.70;0.70;;;;;;;11.16;95.36;98788.66;107625;1246;74883;-69
2022/04/02 04:57:22;;;;;;;0.60;0.60;;;;;;;11.01;92.30;98792.48;107419;1246;64325;-72
2022/04/02 04:59:57;;;;;;;3.70;3.50;;;;;;;11.10;90.66;98790.97;107649;1246;60105;-71
2022/04/02 05:02:30;;;;;;;0.60;0.60;;;;;;;11.18;89.16;98794.15;107643;1246;72551;-71
2022/04/02 05:05:02;;;;;;;1.70;1.60;;;;;;;11.32;88.25;98796.66;107364;1247;71457;-72
2022/04/02 05:07:53;;;;;;;1.90;1.80;;;;;;;11.54;92.90;98801.85;107560;1246;70884;-70
2022/04/02 05:10:24;;;;;;;1.30;1.20;;;;;;;11.49;94.30;98803.66;107735;1246;74734;-72
2022/04/02 05:12:55;;;;;;;1.10;1.00;;;;;;;11.45;95.45;98802.50;107599;1246;60958;-71
2022/04/02 05:15:25;;;;;;;1.20;1.10;;;;;;;11.35;94.83;98805.41;107649;1246;61258;-71
2022/04/02 05:17:56;;;;;;;7.80;2.30;;;;;;;11.18;89.81;98805.71;108015;1246;72032;-75
2022/04/02 05:20:26;;;;;;;1.50;1.40;;;;;;;11.17;87.05;98805.06;107858;1246;72218;-73
2022/04/02 05:22:56;;;;;;;0.90;0.90;;;;;;;11.37;88.46;98807.54;107911;1246;68752;-72
2022/04/02 05:25:26;;;;;;;39.30;22.40;;;;;;;11.50;88.21;98803.56;107867;1246;73131;-72
2022/04/02 05:27:56;;;;;;;41.70;22.60;;;;;;;11.58;87.30;98803.15;107454;1248;59469;-72
2022/04/02 05:30:27;;;;;;;42.40;24.70;;;;;;;11.73;88.17;98805.75;107641;1246;59750;-71
2022/04/02 05:32:58;;;;;;;42.00;22.80;;;;;;;11.81;87.12;98809.39;107333;1247;71534;-74
2022/04/02 05:35:28;;;;;;;42.60;23.60;;;;;;;11.90;86.77;98810.19;107464;1246;70735;-70
2022/04/02 05:37:58;;;;;;;33.50;21.90;;;;;;;12.06;90.80;98810.10;107404;1246;68709;-68
2022/04/02 05:40:27;;;;;;;37.60;20.50;;;;;;;12.04;92.14;98816.54;107482;1244;72325;-69
2022/04/02 05:42:57;;;;;;;34.50;20.60;;;;;;;12.08;94.17;98827.53;107378;1247;62004;-70
2022/04/02 05:45:26;;;;;;;35.50;19.70;;;;;;;12.03;94.80;98828.19;107391;1245;62009;-71
2022/04/02 05:47:56;;;;;;;33.30;18.80;;;;;;;11.90;93.03;98822.46;107513;1246;72563;-70
2022/04/02 05:50:26;;;;;;;36.90;18.90;;;;;;;12.00;93.61;98823.42;107436;1246;72200;-70
2022/04/02 05:53:05;;;;;;;36.50;18.30;;;;;;;12.02;93.82;98815.96;107378;1245;69147;-70
2022/04/02 05:55:35;;;;;;;39.60;20.10;;;;;;;11.98;92.83;98824.77;107153;1246;72157;-71
2022/04/02 05:58:04;;;;;;;42.10;21.80;;;;;;;12.04;93.32;98825.45;107375;1246;62590;-71
2022/04/02 06:00:33;;;;;;;44.00;24.80;;;;;;;12.04;93.96;98824.57;107284;1246;59982;-73
2022/04/02 06:03:04;;;;;;;39.80;23.20;;;;;;;12.08;95.02;98833.45;107460;1246;74654;-77
2022/04/02 06:05:36;;;;;;;37.90;23.60;;;;;;;11.95;92.60;98835.33;108203;1246;70772;-78
2022/04/02 06:08:05;;;;;;;37.40;20.50;;;;;;;11.84;87.58;98839.14;107873;1245;69205;-71
2022/04/02 06:10:34;;;;;;;36.70;19.70;;;;;;;12.03;88.63;98841.20;107592;1246;71964;-70
2022/04/02 06:13:04;;;;;;;39.30;21.50;;;;;;;12.27;94.11;98851.25;107635;1246;60636;-67
2022/04/02 06:15:34;;;;;;;43.80;23.10;;;;;;;12.24;94.73;98853.81;107328;1247;59263;-71
2022/04/02 06:18:04;;;;;;;45.90;25.20;;;;;;;12.27;93.59;98866.63;107524;1246;74036;-73
2022/04/02 06:20:34;;;;;;;51.70;23.90;;;;;;;12.37;95.11;98867.64;107227;1246;71666;-71
2022/04/02 06:23:03;;;;;;;39.90;22.10;;;;;;;12.35;95.54;98870.27;107477;1246;69654;-68
2022/04/02 06:25:33;;;;;;;38.80;20.80;;;;;;;12.17;90.93;98873.75;107509;1246;73109;-71
2022/04/02 06:28:02;;;;;;;32.80;18.60;;;;;;;12.32;92.84;98884.00;107352;1245;62933;-72
2022/04/02 06:30:31;;;;;;;32.10;19.00;;;;;;;12.22;89.26;98890.73;107432;1245;60759;-70
2022/04/02 06:33:02;;;;;;;48.70;18.10;;;;;;;12.40;92.85;98892.44;107579;1246;73523;-72
2022/04/02 06:35:31;;;;;;;30.40;16.30;;;;;;;12.23;93.60;98899.63;107240;1246;72300;-72
2022/04/02 06:38:00;;;;;;;37.50;16.10;;;;;;;12.07;91.83;98897.42;107589;1247;68178;-73
2022/04/02 06:40:30;;;;;;;37.40;19.50;;;;;;;12.06;93.92;98906.40;107287;1246;73929;-71
2022/04/02 06:43:01;;;;;;;49.90;23.50;;;;;;;11.87;93.13;98909.64;107313;1246;61125;-73
2022/04/02 06:46:29;;;;;;;57.40;26.50;;;;;;;11.58;92.56;98913.52;107772;1246;61353;-70
2022/04/02 06:48:58;;;;;;;67.50;28.50;;;;;;;11.56;94.01;98917.94;107637;1246;73494;-74
2022/04/02 06:51:27;;;;;;;74.80;30.50;;;;;;;11.39;90.85;98927.14;107602;1246;71727;-71
2022/04/02 06:53:56;;;;;;;71.80;35.00;;;;;;;11.42;91.10;98928.30;107731;1246;67781;-71
2022/04/02 06:56:26;;;;;;;81.20;36.80;;;;;;;11.31;90.66;98934.34;107546;1248;71439;-72
2022/04/02 06:58:55;;;;;;;82.80;37.00;;;;;;;11.34;91.25;98936.20;107455;1246;63386;-73
2022/04/02 07:01:25;;;;;;;83.90;38.00;;;;;;;11.38;93.38;98940.67;107541;1246;61151;-74
2022/04/02 07:03:55;;;;;;;85.30;35.90;;;;;;;11.24;93.02;98940.39;107326;1248;73627;-70
2022/04/02 07:06:24;;;;;;;86.60;36.40;;;;;;;11.28;93.55;98943.18;107304;1247;73099;-70
2022/04/02 07:08:53;;;;;;;98.80;39.40;;;;;;;11.29;95.28;98946.89;107660;1246;70642;-70
2022/04/02 07:11:22;;;;;;;102.20;47.40;;;;;;;11.22;93.36;98949.02;107460;1246;73272;-74
2022/04/02 07:13:51;;;;;;;93.60;40.80;;;;;;;11.00;89.54;98947.80;107430;1246;60578;-72
2022/04/02 07:16:20;;;;;;;106.80;44.90;;;;;;;11.17;91.28;98952.85;107453;1246;59265;-71
2022/04/02 07:18:49;;;;;;;107.90;44.30;;;;;;;11.28;92.21;98955.34;107306;1246;72077;-71
2022/04/02 07:21:21;;;;;;;100.70;42.00;;;;;;;11.35;93.75;98960.76;107538;1246;71284;-70
2022/04/02 07:23:50;;;;;;;112.80;45.40;;;;;;;11.43;94.07;98968.99;107413;1246;70614;-71
2022/04/02 07:26:21;;;;;;;106.70;46.70;;;;;;;11.48;94.02;98967.90;107241;1247;75110;-72
2022/04/02 07:28:52;;;;;;;115.30;45.80;;;;;;;11.20;89.50;98974.05;107329;1246;63517;-73
2022/04/02 07:31:21;;;;;;;103.70;45.30;;;;;;;11.34;90.09;98978.23;107428;1246;61794;-73
2022/04/02 07:33:51;;;;;;;105.30;39.70;;;;;;;11.46;91.96;98980.85;107207;1249;73583;-73
2022/04/02 07:36:50;;;;;;;94.30;41.30;;;;;;;11.58;93.33;98984.70;107609;1246;72936;-72
2022/04/02 07:40:03;;;;;;;97.00;41.40;;;;;;;11.64;93.93;98991.05;107816;1247;69350;-72
2022/04/02 07:43:02;;;;;;;116.00;45.20;;;;;;;11.65;90.26;98993.21;107766;1246;73975;-71
2022/04/02 07:45:45;;;;;;;88.90;37.10;;;;;;;11.92;93.04;98996.19;107752;1247;64164;-71
2022/04/02 07:48:18;;;;;;;84.30;38.80;;;;;;;11.94;94.53;98997.53;107753;1246;61079;-76
2022/04/02 07:50:48;;;;;;;84.10;38.30;;;;;;;11.84;94.89;99005.73;107734;1246;72203;-71
2022/04/02 07:53:24;;;;;;;83.50;34.70;;;;;;;11.61;91.40;99004.44;107592;1247;71323;-71
2022/04/02 07:56:04;;;;;;;74.70;37.20;;;;;;;11.56;89.29;99008.77;107657;1246;68118;-72
2022/04/02 07:58:38;;;;;;;72.60;36.80;;;;;;;11.72;87.43;99008.17;107626;1245;72798;-71
2022/04/02 08:01:09;;;;;;;74.20;38.30;;;;;;;12.02;93.38;99013.29;107618;1246;63072;-71
2022/04/02 08:03:46;;;;;;;82.30;35.80;;;;;;;11.64;88.98;99017.15;107563;1246;62136;-71
2022/04/02 08:06:18;;;;;;;82.40;40.40;;;;;;;11.87;93.81;99014.22;107530;1246;74525;-72
2022/04/02 08:08:48;;;;;;;77.60;36.20;;;;;;;11.73;91.67;99019.23;107839;1246;73227;-73
2022/04/02 08:11:20;;;;;;;86.80;38.60;;;;;;;11.58;90.47;99024.54;107784;1246;69448;-75
2022/04/02 08:13:52;;;;;;;90.20;39.10;;;;;;;11.53;88.67;99028.73;107884;1246;73767;-76
2022/04/02 08:16:22;;;;;;;96.30;39.10;;;;;;;11.83;93.17;99032.99;107877;1245;61787;-74
2022/04/02 08:18:55;;;;;;;79.60;36.20;;;;;;;11.88;93.17;99033.48;107642;1246;59059;-74
2022/04/02 08:21:25;;;;;;;88.20;37.40;;;;;;;11.61;89.44;99032.42;107259;1246;74085;-73
2022/04/02 08:23:55;;;;;;;75.10;35.80;;;;;;;11.67;88.70;99034.35;107413;1247;69587;-73
2022/04/02 08:26:40;;;;;;;89.00;34.70;;;;;;;11.80;89.85;99033.98;107391;1246;68763;-73
2022/04/02 08:29:27;;;;;;;66.80;33.20;;;;;;;11.83;89.26;99039.52;107641;1246;74327;-76
2022/04/02 08:32:27;;;;;;;87.10;36.80;;;;;;;12.08;92.67;99044.93;107536;1247;61331;-76
2022/04/02 08:35:06;;;;;;;94.80;36.10;;;;;;;12.17;94.60;99043.05;107828;1245;59059;-76
2022/04/02 08:38:03;;;;;;;97.70;36.80;;;;;;;11.87;88.90;99047.36;107752;1246;73703;-75
2022/04/02 08:41:13;;;;;;;78.00;35.80;;;;;;;12.06;92.48;99041.59;107570;1246;72030;-77
2022/04/02 08:44:04;;;;;;;77.10;36.30;;;;;;;12.05;93.99;99039.75;107778;1246;70252;-74
2022/04/02 08:46:40;;;;;;;97.50;29.10;;;;;;;12.01;91.04;99049.09;107641;1246;74519;-72
2022/04/02 08:49:35;;;;;;;65.00;36.20;;;;;;;12.21;93.32;99055.05;107377;1247;62662;-72
2022/04/02 08:52:13;;;;;;;75.40;34.90;;;;;;;12.20;90.87;99064.70;107643;1246;62034;-71
2022/04/02 08:55:15;;;;;;;71.60;35.90;;;;;;;12.25;90.28;99066.52;107617;1246;74136;-71
2022/04/02 08:57:53;;;;;;;79.00;38.70;;;;;;;11.99;85.40;99061.44;107510;1247;70167;-72
2022/04/02 09:00:26;;;;;;;92.20;51.50;;;;;;;12.25;90.66;99063.15;107970;1246;70339;-72
2022/04/02 09:03:00;;;;;;;90.80;47.70;;;;;;;12.16;92.26;99073.64;107441;1246;74265;-74
2022/04/02 09:05:59;;;;;;;82.90;40.10;;;;;;;12.17;92.20;99069.02;107549;1246;63185;-73
2022/04/02 09:09:36;;;;;;;87.60;37.20;;;;;;;12.31;93.14;99060.10;107494;1246;61798;-74
2022/04/02 09:12:28;;;;;;;80.30;43.00;;;;;;;12.46;89.25;99069.08;106819;1252;73379;-74
2022/04/02 09:15:35;;;;;;;81.40;43.20;;;;;;;12.64;91.94;99076.28;106823;1252;72412;-74
2022/04/02 09:18:31;;;;;;;80.00;40.20;;;;;;;12.64;89.67;99073.98;107431;1246;71010;-72
2022/04/02 09:21:45;;;;;;;72.00;39.30;;;;;;;12.55;84.40;99074.76;107311;1246;71880;-73
2022/04/02 09:24:53;;;;;;;99.70;41.00;;;;;;;12.82;82.25;99077.29;109621;1246;63084;-74
2022/04/02 09:27:59;;;;;;;73.90;43.20;;;;;;;13.39;90.13;99071.02;108255;1246;59547;-73
2022/04/02 09:31:01;;;;;;;81.30;47.20;;;;;;;13.68;90.79;99078.77;107675;1246;74329;-74
2022/04/02 09:33:52;;;;;;;104.10;47.10;;;;;;;13.69;80.90;99073.05;107724;1246;71985;-74
2022/04/02 09:37:04;;;;;;;84.60;41.30;;;;;;;14.26;90.49;99071.73;107522;1247;70583;-72
2022/04/02 09:40:06;;;;;;;81.70;41.10;;;;;;;14.05;90.05;99074.41;107765;1246;73089;-75
2022/04/02 09:42:44;;;;;;;96.50;58.60;;;;;;;14.14;88.19;99083.98;107614;1246;62291;-76
2022/04/02 09:45:21;;;;;;;120.00;77.70;;;;;;;14.04;87.60;99080.00;107474;1249;61716;-73
2022/04/02 09:48:05;;;;;;;85.50;41.80;;;;;;;13.98;80.71;99078.23;107271;1249;75496;-73
2022/04/02 09:50:35;;;;;;;71.10;43.20;;;;;;;14.24;89.40;99077.03;107685;1246;71754;-72
2022/04/02 09:53:24;;;;;;;61.70;39.10;;;;;;;14.15;88.21;99083.13;107487;1246;70555;-70
2022/04/02 09:55:53;;;;;;;61.30;38.70;;;;;;;14.01;86.93;99087.34;107332;1247;73515;-74
2022/04/02 09:58:57;;;;;;;61.60;35.30;;;;;;;13.95;88.34;99083.98;107267;1247;61805;-71
2022/04/02 10:01:35;;;;;;;72.60;39.70;;;;;;;13.87;85.51;99079.34;107493;1247;58965;-71
2022/04/02 10:04:47;;;;;;;55.10;34.60;;;;;;;13.79;83.45;99083.89;107527;1246;72559;-73
2022/04/02 10:08:04;;;;;;;60.80;35.30;;;;;;;13.87;82.68;99083.90;107479;1246;71117;-76
2022/04/02 10:10:35;;;;;;;56.70;37.90;;;;;;;13.93;83.80;99092.06;107550;1249;69022;-72
2022/04/02 10:13:05;;;;;;;56.70;38.00;;;;;;;13.85;80.66;99090.02;107496;1246;73985;-74
2022/04/02 10:15:41;;;;;;;58.50;37.50;;;;;;;13.73;80.37;99089.80;107731;1246;64522;-74
2022/04/02 10:18:12;;;;;;;76.20;39.50;;;;;;;13.76;83.16;99088.08;107862;1247;60228;-73
2022/04/02 10:20:45;;;;;;;65.00;37.70;;;;;;;13.52;79.87;99089.34;107538;1246;71545;-74
2022/04/02 10:23:23;;;;;;;69.30;35.00;;;;;;;13.66;80.98;99090.96;108050;1246;70349;-72
2022/04/02 10:26:18;;;;;;;51.40;33.50;;;;;;;13.64;80.75;99095.02;108848;1246;68789;-79
2022/04/02 10:29:09;;;;;;;53.50;35.00;;;;;;;13.41;75.15;99095.96;107992;1246;70312;-75
2022/04/02 10:31:53;;;;;;;41.30;31.00;;;;;;;13.79;80.61;99097.48;107499;1249;63801;-74
2022/04/02 10:34:46;;;;;;;65.60;33.80;;;;;;;13.83;72.39;99096.39;107660;1246;59570;-72
2022/04/02 10:37:17;;;;;;;45.90;30.10;;;;;;;14.36;84.98;99100.93;107531;1248;73658;-75
2022/04/02 10:40:00;;;;;;;61.40;30.90;;;;;;;14.28;80.46;99103.21;107779;1248;69094;-74
2022/04/02 10:42:42;;;;;;;58.30;32.90;;;;;;;13.50;68.58;99097.19;107747;1247;68902;-74
2022/04/02 10:45:13;;;;;;;47.60;30.20;;;;;;;14.11;81.83;99099.38;107806;1245;71976;-73
2022/04/02 10:47:50;;;;;;;62.70;31.60;;;;;;;14.12;79.78;99083.34;107399;1247;60722;-75
2022/04/02 10:50:22;;;;;;;37.00;28.10;;;;;;;14.26;80.37;99097.67;107493;1247;60569;-76
2022/04/02 10:52:52;;;;;;;45.20;28.90;;;;;;;14.25;77.85;99091.95;107248;1249;73752;-74
2022/04/02 10:55:23;;;;;;;49.80;27.00;;;;;;;14.22;80.24;99094.81;107776;1247;71414;-73
2022/04/02 10:57:54;;;;;;;41.80;26.80;;;;;;;14.17;78.19;99097.34;107498;1246;67930;-74
2022/04/02 11:00:29;;;;;;;30.10;22.70;;;;;;;14.25;80.67;99098.43;107874;1249;72575;-76
2022/04/02 11:03:42;;;;;;;29.80;22.70;;;;;;;14.07;72.18;99098.73;107810;1247;60604;-78
2022/04/02 11:06:49;;;;;;;28.70;22.40;;;;;;;14.45;76.19;99099.83;107444;1244;59860;-74
2022/04/02 11:09:34;;;;;;;30.60;23.90;;;;;;;14.61;77.50;99104.08;107783;1247;73090;-77
2022/04/02 11:12:11;;;;;;;32.20;24.30;;;;;;;14.15;72.34;99099.47;107694;1250;71619;-74
2022/04/02 11:14:45;;;;;;;28.10;22.50;;;;;;;14.41;73.34;99093.89;107804;1246;68822;-75
2022/04/02 11:17:54;;;;;;;55.30;24.50;;;;;;;14.44;64.05;99089.29;107554;1246;73771;-74
2022/04/02 11:20:26;;;;;;;136.10;31.70;;;;;;;14.67;66.12;99085.81;108124;1247;62847;-73
2022/04/02 11:22:57;;;;;;;26.10;20.40;;;;;;;15.19;71.78;99084.83;108274;1244;59391;-72
2022/04/02 11:25:34;;;;;;;40.00;21.80;;;;;;;15.31;61.89;99081.50;107735;1245;71739;-74
2022/04/02 11:28:12;;;;;;;179.30;30.80;;;;;;;15.32;60.70;99083.09;107754;1246;70357;-73
2022/04/02 11:31:01;;;;;;;25.90;21.50;;;;;;;15.86;65.85;99083.35;107592;1245;69350;-72
2022/04/02 11:33:33;;;;;;;26.00;20.10;;;;;;;15.91;60.65;99078.24;107496;1247;71757;-72
2022/04/02 11:36:07;;;;;;;85.70;24.90;;;;;;;15.98;67.04;99088.50;107396;1245;59015;-77
2022/04/02 11:38:49;;;;;;;44.70;22.90;;;;;;;15.54;57.38;99087.41;107786;1246;58901;-78
2022/04/02 11:41:27;;;;;;;95.00;24.30;;;;;;;16.04;70.50;99080.71;107514;1248;75403;-74
2022/04/02 11:44:14;;;;;;;74.30;19.90;;;;;;;16.03;63.23;99075.48;107588;1248;72856;-74
2022/04/02 11:47:06;;;;;;;19.30;17.10;;;;;;;16.17;64.36;99077.21;107672;1247;69011;-73
2022/04/02 11:49:42;;;;;;;86.70;21.50;;;;;;;16.48;74.51;99079.32;107489;1247;70769;-75
2022/04/02 11:52:16;;;;;;;48.30;16.90;;;;;;;16.59;72.84;99071.52;107191;1250;63000;-74
2022/04/02 11:54:48;;;;;;;175.20;27.50;;;;;;;16.47;68.28;99072.23;107198;1248;61385;-76
2022/04/02 11:57:19;;;;;;;64.10;17.70;;;;;;;15.99;64.09;99069.42;107380;1247;75191;-72